Time;durP1;ratioP1;P1;durP2;ratioP2;P2;SDS_P1;SDS_P2;PMS_P1;PMS_P2;Temp;Humidity;BMP_temperature;BMP_pressure;BME280_temperature;BME280_humidity;BME280_pressure;Samples;Min_cycle;Max_cycle;Signal;HPM_P1;HPM_P2
2022/11/16 10:33:15;;;;;;;12.55;3.08;;;;;;;10.05;100.00;99830.22;5126207;27;20353;-75
2022/11/16 10:35:52;;;;;;;11.48;2.85;;;;;;;10.12;100.00;99824.66;5100371;28;20480;-76
2022/11/16 10:38:29;;;;;;;9.07;2.70;;;;;;;10.16;100.00;99828.53;5088528;28;20058;-74
2022/11/16 10:41:19;;;;;;;8.10;2.10;;;;;;;10.21;100.00;99838.59;5096985;28;20051;-76
2022/11/16 10:43:44;;;;;;;10.13;2.55;;;;;;;10.24;100.00;99838.09;5110909;28;20012;-77
2022/11/16 10:46:32;;;;;;;10.98;2.60;;;;;;;10.32;100.00;99836.84;5128152;28;20474;-75
2022/11/16 10:49:12;;;;;;;11.63;2.72;;;;;;;10.35;100.00;99825.56;5076375;28;20429;-74
2022/11/16 10:51:37;;;;;;;8.75;2.30;;;;;;;10.39;100.00;99827.53;5091878;28;20389;-75
2022/11/16 10:54:14;;;;;;;8.88;2.50;;;;;;;10.43;100.00;99823.28;5098416;28;20024;-76
2022/11/16 10:56:44;;;;;;;9.23;2.88;;;;;;;10.39;100.00;99821.31;5091786;28;20386;-77
2022/11/16 10:59:12;;;;;;;7.25;2.20;;;;;;;10.37;100.00;99832.38;5089354;28;20022;-75
2022/11/16 11:01:49;;;;;;;10.93;2.40;;;;;;;10.41;100.00;99828.09;5086807;28;20526;-76
2022/11/16 11:04:15;;;;;;;7.85;2.20;;;;;;;10.48;100.00;99838.75;5101515;28;20028;-74
2022/11/16 11:06:41;;;;;;;15.05;2.47;;;;;;;10.54;100.00;99832.34;5095721;28;20040;-76
2022/11/16 11:09:24;;;;;;;10.88;2.20;;;;;;;10.59;100.00;99826.19;5109375;28;20038;-76
2022/11/16 11:15:10;;;;;;;9.48;2.40;;;;;;;10.69;100.00;99815.50;5105145;28;20093;-76
2022/11/16 11:17:38;;;;;;;11.55;2.78;;;;;;;10.71;100.00;99823.34;5086511;28;20035;-74
2022/11/16 11:20:16;;;;;;;9.60;2.15;;;;;;;10.69;100.00;99825.47;5088792;28;20494;-75
2022/11/16 11:22:48;;;;;;;7.75;2.22;;;;;;;10.68;100.00;99824.66;5090132;28;20024;-74
2022/11/16 11:25:25;;;;;;;8.05;2.25;;;;;;;10.71;100.00;99824.16;5089199;28;20063;-73
2022/11/16 11:28:04;;;;;;;8.38;1.92;;;;;;;10.70;100.00;99821.72;5095887;28;20027;-75
2022/11/16 11:30:30;;;;;;;9.55;2.17;;;;;;;10.72;100.00;99816.84;5109526;28;20098;-75
2022/11/16 11:32:57;;;;;;;10.23;2.25;;;;;;;10.73;100.00;99811.19;5106341;28;20136;-72
2022/11/16 11:35:26;;;;;;;10.07;2.28;;;;;;;10.74;100.00;99806.63;5109643;28;20023;-72
2022/11/16 11:37:55;;;;;;;11.20;2.38;;;;;;;10.69;100.00;99804.66;5083292;28;20586;-74
2022/11/16 11:40:22;;;;;;;10.43;2.90;;;;;;;10.71;100.00;99807.94;5088527;28;20044;-72
2022/11/16 11:42:56;;;;;;;9.20;2.55;;;;;;;10.71;100.00;99807.94;5085601;28;20033;-72
2022/11/16 11:45:29;;;;;;;8.57;2.30;;;;;;;10.67;100.00;99804.09;5077095;28;20047;-74
2022/11/16 11:48:06;;;;;;;12.05;2.58;;;;;;;10.69;100.00;99799.25;5094972;28;20027;-74
2022/11/16 11:50:47;;;;;;;9.13;2.33;;;;;;;10.69;100.00;99799.25;5084617;28;20028;-72
2022/11/16 11:53:38;;;;;;;11.93;2.42;;;;;;;10.71;100.00;99801.72;5078503;28;20031;-73
2022/11/16 11:56:04;;;;;;;10.73;2.22;;;;;;;10.76;100.00;99783.63;5081700;28;20081;-71
2022/11/16 11:58:32;;;;;;;9.55;2.90;;;;;;;10.84;100.00;99770.72;5074986;28;20087;-72
2022/11/16 12:01:35;;;;;;;12.32;2.90;;;;;;;10.90;100.00;99767.00;5079755;28;20028;-74
2022/11/16 12:04:06;;;;;;;8.48;2.10;;;;;;;10.93;100.00;99771.91;5093539;28;20032;-74
2022/11/16 12:06:40;;;;;;;12.32;2.60;;;;;;;10.93;100.00;99778.16;5082003;28;20008;-73
2022/11/16 12:09:29;;;;;;;10.23;2.40;;;;;;;10.96;100.00;99769.53;5119874;28;20019;-73
2022/11/16 12:12:27;;;;;;;9.68;2.50;;;;;;;11.01;100.00;99765.25;5111358;28;20075;-75
2022/11/16 12:15:28;;;;;;;7.03;2.20;;;;;;;11.06;100.00;99760.69;5057725;28;20115;-72
2022/11/16 12:18:05;;;;;;;7.40;2.00;;;;;;;11.06;100.00;99754.47;5024770;28;20396;-71
2022/11/16 12:20:53;;;;;;;7.93;2.20;;;;;;;11.05;100.00;99748.25;5081431;28;20028;-71
2022/11/16 12:23:44;;;;;;;10.90;2.58;;;;;;;11.08;100.00;99747.72;5075505;28;20055;-74
2022/11/16 12:26:31;;;;;;;8.15;2.17;;;;;;;11.10;100.00;99753.69;5094967;28;20024;-71
2022/11/16 12:29:19;;;;;;;10.45;2.83;;;;;;;11.09;100.00;99743.13;5085378;28;20087;-74
2022/11/16 12:31:44;;;;;;;7.95;2.10;;;;;;;11.10;100.00;99751.00;5073867;28;20052;-73
2022/11/16 12:34:32;;;;;;;9.45;2.53;;;;;;;11.13;100.00;99744.25;5056028;28;20044;-72
2022/11/16 12:37:19;;;;;;;7.57;2.05;;;;;;;11.12;100.00;99737.19;5055868;28;20485;-72
2022/11/16 12:40:02;;;;;;;8.32;2.20;;;;;;;11.10;100.00;99739.34;5086504;28;20024;-73
2022/11/16 12:42:45;;;;;;;9.85;2.17;;;;;;;11.11;100.00;99732.84;5094312;28;20020;-74
2022/11/16 12:45:30;;;;;;;7.20;2.20;;;;;;;11.13;100.00;99731.53;5094325;28;20028;-76
2022/11/16 12:48:23;;;;;;;9.05;2.08;;;;;;;11.15;100.00;99723.94;5076041;28;20024;-77
2022/11/16 12:51:03;;;;;;;8.75;2.38;;;;;;;11.17;100.00;99716.41;5092833;28;20031;-72
2022/11/16 12:53:45;;;;;;;8.82;2.03;;;;;;;11.17;100.00;99718.28;5093982;28;20029;-75
2022/11/16 12:56:23;;;;;;;7.28;2.17;;;;;;;11.18;100.00;99714.50;5093080;28;20066;-74
2022/11/16 12:59:05;;;;;;;8.38;2.40;;;;;;;11.20;100.00;99712.34;5068891;28;20452;-74
2022/11/16 13:02:17;;;;;;;11.07;2.55;;;;;;;11.23;100.00;99711.03;5071931;28;20033;-75
2022/11/16 13:04:47;;;;;;;9.38;2.20;;;;;;;11.18;100.00;99704.47;5045987;28;20089;-75
2022/11/16 13:07:19;;;;;;;8.43;2.38;;;;;;;11.22;100.00;99701.25;5092400;28;20024;-74
2022/11/16 13:09:50;;;;;;;11.02;3.00;;;;;;;11.21;100.00;99697.75;5091619;28;20028;-75
2022/11/16 13:12:22;;;;;;;6.70;2.00;;;;;;;11.26;100.00;99702.38;5093271;28;20424;-74
2022/11/16 13:14:50;;;;;;;8.68;2.30;;;;;;;11.25;100.00;99698.88;5093566;28;20028;-73
2022/11/16 13:17:33;;;;;;;9.25;2.22;;;;;;;11.31;100.00;99707.88;5074059;28;20436;-74
2022/11/16 13:20:17;;;;;;;11.95;2.45;;;;;;;11.37;100.00;99701.41;5087543;28;20035;-76
2022/11/16 13:22:52;;;;;;;8.07;2.05;;;;;;;11.41;100.00;99691.69;5093440;28;20136;-73
2022/11/16 13:25:30;;;;;;;11.20;2.60;;;;;;;11.41;100.00;99691.69;5093423;28;20031;-75
2022/11/16 13:28:11;;;;;;;8.43;2.22;;;;;;;11.39;100.00;99693.84;5093945;28;20036;-75
2022/11/16 13:30:54;;;;;;;8.52;2.33;;;;;;;11.40;100.00;99695.47;5054712;28;20035;-75
2022/11/16 13:33:48;;;;;;;12.40;2.60;;;;;;;11.37;100.00;99693.28;5072790;28;20036;-74
2022/11/16 13:36:36;;;;;;;8.50;2.20;;;;;;;11.42;100.00;99692.50;5072837;28;20024;-74
2022/11/16 13:39:03;;;;;;;9.15;2.30;;;;;;;11.39;100.00;99696.53;5071882;28;20068;-73
2022/11/16 13:41:39;;;;;;;10.15;2.42;;;;;;;11.41;100.00;99694.38;5055921;28;20028;-74
2022/11/16 13:44:17;;;;;;;8.25;2.20;;;;;;;11.40;100.00;99690.06;5054933;28;20043;-73
2022/11/16 13:46:46;;;;;;;10.68;2.45;;;;;;;11.42;100.00;99687.09;5055061;28;20024;-72
2022/11/16 13:49:27;;;;;;;10.40;2.60;;;;;;;11.44;100.00;99693.88;5078746;28;20111;-73
2022/11/16 13:51:58;;;;;;;7.65;2.63;;;;;;;11.45;100.00;99686.56;5081293;28;20067;-73
2022/11/16 13:54:46;;;;;;;7.60;2.42;;;;;;;11.45;100.00;99692.78;5072372;28;20020;-74
2022/11/16 13:57:22;;;;;;;12.38;2.70;;;;;;;11.44;100.00;99685.72;5054361;28;20494;-74
2022/11/16 13:59:55;;;;;;;11.10;2.42;;;;;;;11.45;100.00;99686.56;5082993;28;20024;-75
2022/11/16 14:02:30;;;;;;;6.78;2.28;;;;;;;11.38;100.00;99694.91;5090254;28;20497;-72
2022/11/16 14:05:11;;;;;;;9.27;2.40;;;;;;;11.39;100.00;99693.84;5065154;28;20093;-75
2022/11/16 14:07:49;;;;;;;12.30;2.33;;;;;;;11.35;100.00;99693.53;5072622;28;20024;-73
2022/11/16 14:10:33;;;;;;;6.53;1.90;;;;;;;11.41;100.00;99688.16;5087032;28;20169;-74
2022/11/16 14:13:03;;;;;;;11.68;2.40;;;;;;;11.41;100.00;99688.97;5092627;28;20075;-75
2022/11/16 14:15:34;;;;;;;9.80;2.33;;;;;;;11.42;100.00;99679.78;5093127;28;20024;-75
2022/11/16 14:18:08;;;;;;;12.60;2.25;;;;;;;11.41;100.00;99671.91;5075389;28;20042;-74
2022/11/16 14:20:37;;;;;;;7.18;2.28;;;;;;;11.36;100.00;99672.69;5098351;28;20019;-73
2022/11/16 14:23:26;;;;;;;9.20;2.90;;;;;;;11.37;100.00;99668.06;5117216;28;20096;-74
2022/11/16 14:26:29;;;;;;;12.57;2.80;;;;;;;11.34;100.00;99664.00;5114546;28;20094;-76
2022/11/16 14:29:05;;;;;;;10.45;2.15;;;;;;;11.30;100.00;99658.28;5098311;28;20038;-72
2022/11/16 14:31:47;;;;;;;8.23;2.38;;;;;;;11.28;100.00;99659.63;5093180;28;20044;-75
2022/11/16 14:34:23;;;;;;;7.70;2.25;;;;;;;11.26;100.00;99661.78;5088154;28;20494;-74
2022/11/16 14:36:49;;;;;;;8.48;2.22;;;;;;;11.23;100.00;99656.88;5072466;28;20116;-75
2022/11/16 14:39:42;;;;;;;7.78;2.40;;;;;;;11.26;100.00;99661.78;5054219;28;20032;-75
2022/11/16 14:42:21;;;;;;;10.75;2.60;;;;;;;11.22;100.00;99650.66;5071895;28;20365;-73
2022/11/16 14:44:48;;;;;;;10.73;2.88;;;;;;;11.21;100.00;99648.19;5071900;28;20024;-75
2022/11/16 14:47:22;;;;;;;10.55;3.13;;;;;;;11.14;100.00;99641.13;5083003;28;20067;-75
2022/11/16 14:49:48;;;;;;;10.63;2.42;;;;;;;11.15;100.00;99637.31;5073778;28;20169;-75
2022/11/16 14:52:16;;;;;;;9.93;2.20;;;;;;;11.16;100.00;99635.44;5089347;28;20538;-75
2022/11/16 14:54:49;;;;;;;8.40;2.42;;;;;;;11.13;100.00;99628.63;5086040;28;20032;-74
2022/11/16 14:57:23;;;;;;;11.45;2.70;;;;;;;11.11;100.00;99622.69;5072149;28;20072;-75
2022/11/16 15:00:04;;;;;;;9.55;2.55;;;;;;;11.11;100.00;99628.09;5085827;28;20118;-75
2022/11/16 15:02:31;;;;;;;9.93;2.65;;;;;;;11.10;100.00;99637.28;5090555;28;20032;-74
2022/11/16 15:04:56;;;;;;;12.73;2.70;;;;;;;11.05;100.00;99629.13;5067733;28;20029;-75
2022/11/16 15:07:22;;;;;;;10.93;2.83;;;;;;;11.03;100.00;99619.63;5071617;28;20032;-75
2022/11/16 15:09:54;;;;;;;12.77;2.72;;;;;;;11.01;100.00;99616.38;5071494;28;20166;-75
2022/11/16 15:15:18;;;;;;;9.85;2.60;;;;;;;10.90;100.00;99627.09;5077411;28;20502;-74
2022/11/16 15:17:50;;;;;;;9.48;2.63;;;;;;;10.90;100.00;99628.97;5074442;28;20029;-77
2022/11/16 15:20:18;;;;;;;16.65;3.58;;;;;;;10.88;100.00;99609.47;5084763;28;20043;-76
2022/11/16 15:22:46;;;;;;;11.52;3.00;;;;;;;10.85;100.00;99580.22;5075150;28;20037;-76
2022/11/16 15:25:32;;;;;;;12.57;3.50;;;;;;;10.82;100.00;99593.22;5081426;28;20035;-75
2022/11/16 15:28:01;;;;;;;13.68;3.65;;;;;;;10.71;100.00;99607.69;5077802;28;20474;-77
2022/11/16 15:30:33;;;;;;;9.40;2.72;;;;;;;10.74;100.00;99606.38;5079939;28;20028;-74
2022/11/16 15:33:02;;;;;;;11.35;3.15;;;;;;;10.71;100.00;99596.88;5080941;28;20044;-75
2022/11/16 15:35:33;;;;;;;12.95;3.38;;;;;;;10.68;100.00;99591.97;5078190;28;20146;-76
2022/11/16 15:38:13;;;;;;;8.52;3.20;;;;;;;10.71;100.00;99596.06;5075139;28;20391;-75
2022/11/16 15:40:41;;;;;;;8.40;3.00;;;;;;;10.69;100.00;99588.22;5088766;28;20031;-76
2022/11/16 15:43:10;;;;;;;8.57;2.95;;;;;;;10.70;100.00;99583.63;5085861;28;20388;-75
2022/11/16 15:45:36;;;;;;;12.73;3.45;;;;;;;10.66;100.00;99574.38;5089448;28;20059;-74
2022/11/16 15:48:03;;;;;;;12.27;2.97;;;;;;;10.67;100.00;99563.28;5087120;28;20549;-74
2022/11/16 15:50:29;;;;;;;15.27;3.42;;;;;;;10.69;100.00;99555.75;5081372;28;20123;-75
2022/11/16 15:52:55;;;;;;;8.50;2.80;;;;;;;10.64;100.00;99563.81;5076787;28;20238;-74
2022/11/16 15:55:27;;;;;;;10.13;3.47;;;;;;;10.63;100.00;99560.28;5073639;28;20032;-74
2022/11/16 15:57:58;;;;;;;9.93;3.30;;;;;;;10.57;100.00;99555.09;5086696;28;20109;-75
2022/11/16 16:00:25;;;;;;;11.75;2.88;;;;;;;10.57;100.00;99544.28;5076949;28;20463;-76
2022/11/16 16:02:51;;;;;;;11.68;3.40;;;;;;;10.57;100.00;99541.59;5078883;28;20502;-76
2022/11/16 16:05:31;;;;;;;12.27;3.67;;;;;;;10.58;100.00;99540.50;5073810;28;20043;-77
2022/11/16 16:07:58;;;;;;;16.73;5.28;;;;;;;10.53;100.00;99529.63;5074227;28;20056;-77
2022/11/16 16:10:24;;;;;;;12.43;5.82;;;;;;;10.44;100.00;99526.56;5073320;28;20028;-76
2022/11/16 16:12:54;;;;;;;13.23;4.20;;;;;;;10.42;100.00;99526.84;5092568;28;20485;-77
2022/11/16 16:15:24;;;;;;;10.90;4.13;;;;;;;10.40;100.00;99520.88;5093546;28;20036;-77
2022/11/16 16:17:52;;;;;;;11.52;3.33;;;;;;;10.38;100.00;99523.00;5082252;28;20411;-77
2022/11/16 16:20:20;;;;;;;11.85;3.20;;;;;;;10.38;100.00;99506.78;5074865;28;20040;-73
2022/11/16 16:22:45;;;;;;;8.43;3.00;;;;;;;10.35;100.00;99512.69;5080186;28;20115;-74
2022/11/16 16:25:32;;;;;;;10.90;2.95;;;;;;;10.40;100.00;99520.03;5077305;28;20124;-73
2022/11/16 16:28:01;;;;;;;8.73;3.28;;;;;;;10.29;100.00;99519.09;5076118;28;20032;-76
2022/11/16 16:30:28;;;;;;;13.05;4.00;;;;;;;10.29;100.00;99511.78;5079928;28;20035;-74
2022/11/16 16:32:53;;;;;;;13.57;3.70;;;;;;;10.25;100.00;99516.09;5081506;28;20507;-74
2022/11/16 16:35:21;;;;;;;17.30;4.65;;;;;;;10.26;100.00;99516.91;5088310;28;20111;-74
2022/11/16 16:37:54;;;;;;;21.35;6.75;;;;;;;10.24;100.00;99517.16;5094882;28;20073;-74
2022/11/16 16:40:20;;;;;;;24.10;7.07;;;;;;;10.22;100.00;99507.66;5087697;28;20054;-75
2022/11/16 16:42:46;;;;;;;28.58;7.07;;;;;;;10.19;100.00;99500.91;5083712;28;20480;-75
2022/11/16 16:45:18;;;;;;;27.23;8.13;;;;;;;10.21;100.00;99506.88;5073378;28;20025;-75
2022/11/16 16:47:44;;;;;;;34.97;10.05;;;;;;;10.16;100.00;99503.28;5056294;28;20380;-74
2022/11/16 16:50:09;;;;;;;33.30;8.88;;;;;;;10.20;100.00;99499.81;5056388;28;20025;-75
2022/11/16 16:52:35;;;;;;;33.40;8.35;;;;;;;10.19;100.00;99494.66;5074191;28;20019;-73
2022/11/16 16:55:00;;;;;;;33.25;8.65;;;;;;;10.18;100.00;99488.44;5073661;28;20039;-74
2022/11/16 16:57:25;;;;;;;32.90;8.30;;;;;;;10.20;100.00;99489.00;5076909;28;20024;-76
2022/11/16 16:59:51;;;;;;;26.08;6.55;;;;;;;10.20;100.00;99488.19;5094036;28;20041;-74
2022/11/16 17:02:16;;;;;;;30.27;6.80;;;;;;;10.22;100.00;99483.34;5073142;28;20039;-74
2022/11/16 17:04:45;;;;;;;22.58;5.95;;;;;;;10.21;100.00;99484.44;5075765;28;20017;-74
2022/11/16 17:07:11;;;;;;;21.05;5.90;;;;;;;10.20;100.00;99471.97;5060278;28;20435;-74
2022/11/16 17:09:36;;;;;;;14.15;4.90;;;;;;;10.19;100.00;99475.75;5073381;28;20028;-75
2022/11/16 17:12:01;;;;;;;17.38;4.70;;;;;;;10.19;100.00;99476.56;5073223;28;20035;-72
2022/11/16 17:14:27;;;;;;;14.38;4.28;;;;;;;10.20;100.00;99474.69;5054830;28;20071;-73
2022/11/16 17:16:52;;;;;;;16.80;4.53;;;;;;;10.17;100.00;99467.88;5079348;28;20384;-70
2022/11/16 17:19:18;;;;;;;13.20;5.05;;;;;;;10.12;100.00;99467.84;5055387;28;20044;-70
2022/11/16 17:21:44;;;;;;;11.88;3.45;;;;;;;10.18;100.00;99468.72;5073444;28;20032;-71
2022/11/16 17:24:09;;;;;;;10.35;3.60;;;;;;;10.16;100.00;99470.84;5077027;28;20425;-71
2022/11/16 17:26:34;;;;;;;9.15;3.20;;;;;;;10.16;100.00;99465.44;5058659;28;20434;-72
2022/11/16 17:29:00;;;;;;;10.68;3.13;;;;;;;10.16;100.00;99473.56;5073342;28;20032;-72
2022/11/16 17:31:26;;;;;;;11.73;3.30;;;;;;;10.16;100.00;99460.03;5082050;28;20059;-70
2022/11/16 17:33:52;;;;;;;6.20;2.78;;;;;;;10.16;100.00;99465.44;5091994;28;20043;-71
2022/11/16 17:36:18;;;;;;;10.07;3.50;;;;;;;10.24;100.00;99459.59;5092150;28;20395;-73
2022/11/16 17:38:44;;;;;;;27.38;19.50;;;;;;;10.21;100.00;99460.91;5075204;28;20051;-73
2022/11/16 17:41:18;;;;;;;11.80;6.30;;;;;;;10.22;100.00;99453.59;5086128;28;20064;-72
2022/11/16 17:43:45;;;;;;;11.02;4.93;;;;;;;10.21;100.00;99447.38;5072709;28;20430;-70
2022/11/16 17:46:15;;;;;;;11.63;4.57;;;;;;;10.23;100.00;99445.22;5072747;28;20031;-74
2022/11/16 17:48:42;;;;;;;6.50;3.10;;;;;;;10.28;100.00;99445.28;5075459;28;20032;-75
2022/11/16 17:51:09;;;;;;;7.18;2.92;;;;;;;10.26;100.00;99443.91;5084021;28;20075;-73
2022/11/16 17:53:35;;;;;;;9.18;4.35;;;;;;;10.26;100.00;99442.00;5076231;28;20027;-75
2022/11/16 17:56:01;;;;;;;11.35;3.50;;;;;;;10.31;100.00;99451.25;5092770;28;20035;-75
2022/11/16 17:58:27;;;;;;;10.32;3.50;;;;;;;10.29;100.00;99448.81;5092557;28;20070;-71
2022/11/16 18:00:53;;;;;;;9.63;3.88;;;;;;;10.29;100.00;99440.69;5090397;28;20016;-71
2022/11/16 18:03:18;;;;;;;9.25;4.22;;;;;;;10.28;100.00;99441.75;5071942;28;20024;-70
2022/11/16 18:05:44;;;;;;;11.40;3.50;;;;;;;10.26;100.00;99444.72;5079364;28;20039;-70
2022/11/16 18:08:09;;;;;;;12.75;3.70;;;;;;;10.28;100.00;99449.88;5072094;28;20028;-73
2022/11/16 18:10:35;;;;;;;12.50;3.60;;;;;;;10.29;100.00;99443.41;5072424;28;20036;-71
2022/11/16 18:13:01;;;;;;;8.93;3.58;;;;;;;10.24;100.00;99446.06;5072578;28;20032;-72
2022/11/16 18:15:26;;;;;;;6.80;3.40;;;;;;;10.29;100.00;99443.41;5091105;28;20116;-71
2022/11/16 18:17:52;;;;;;;12.57;6.80;;;;;;;10.26;100.00;99447.41;5092623;28;20034;-70
2022/11/16 18:20:18;;;;;;;8.88;3.20;;;;;;;10.28;100.00;99441.75;5092767;28;20054;-70
2022/11/16 18:22:43;;;;;;;9.02;3.42;;;;;;;10.24;100.00;99440.66;5090556;28;20028;-71
2022/11/16 18:25:09;;;;;;;8.23;3.03;;;;;;;10.25;100.00;99442.28;5082235;28;20547;-70
2022/11/16 18:27:34;;;;;;;10.90;3.15;;;;;;;10.26;100.00;99439.31;5054263;28;20510;-70
2022/11/16 18:30:00;;;;;;;7.60;3.10;;;;;;;10.24;100.00;99446.06;5072387;28;20029;-70
2022/11/16 18:32:25;;;;;;;10.27;3.05;;;;;;;10.23;100.00;99439.03;5072198;28;20438;-72
2022/11/16 18:34:51;;;;;;;9.63;2.70;;;;;;;10.25;100.00;99435.00;5085692;28;20107;-73
2022/11/16 18:37:17;;;;;;;7.70;2.78;;;;;;;10.23;100.00;99439.03;5056477;28;20086;-72
2022/11/16 18:39:42;;;;;;;7.60;2.67;;;;;;;10.24;100.00;99436.06;5072419;28;20025;-71
2022/11/16 18:42:10;;;;;;;9.95;2.90;;;;;;;10.21;100.00;99431.16;5072615;28;20047;-71
2022/11/16 18:44:36;;;;;;;9.27;2.45;;;;;;;10.20;100.00;99428.72;5079564;28;20059;-72
2022/11/16 18:47:01;;;;;;;7.35;2.95;;;;;;;10.17;100.00;99423.84;5092172;28;20090;-72
2022/11/16 18:49:27;;;;;;;7.05;2.80;;;;;;;10.20;100.00;99417.91;5071030;28;20039;-72
2022/11/16 18:51:53;;;;;;;8.00;2.50;;;;;;;10.20;100.00;99426.03;5065785;28;20127;-73
2022/11/16 18:54:18;;;;;;;8.35;3.20;;;;;;;10.17;100.00;99415.72;5076956;28;20032;-72
2022/11/16 18:56:43;;;;;;;7.50;2.92;;;;;;;10.18;100.00;99417.38;5078373;28;20035;-72
2022/11/16 18:59:08;;;;;;;6.63;2.92;;;;;;;10.19;100.00;99405.47;5096368;28;20028;-72
2022/11/16 19:01:34;;;;;;;7.85;3.17;;;;;;;10.19;100.00;99402.75;5092478;28;20032;-72
2022/11/16 19:03:59;;;;;;;6.57;3.17;;;;;;;10.17;100.00;99397.59;5096309;28;20028;-72
2022/11/16 19:06:24;;;;;;;7.78;3.30;;;;;;;10.19;100.00;99381.13;5090709;28;20040;-72
2022/11/16 19:08:57;;;;;;;5.68;2.75;;;;;;;10.20;100.00;99390.88;5065248;28;20484;-72
2022/11/16 19:11:24;;;;;;;9.20;2.65;;;;;;;10.20;100.00;99382.75;5088395;28;20475;-72
2022/11/16 19:14:06;;;;;;;4.75;2.50;;;;;;;10.21;100.00;99384.41;5095068;28;20027;-71
2022/11/16 19:16:32;;;;;;;8.63;3.03;;;;;;;10.13;100.00;99379.47;5095599;28;20031;-72
2022/11/16 19:18:57;;;;;;;5.53;2.85;;;;;;;10.16;100.00;99370.84;5077666;28;20054;-71
2022/11/16 19:21:23;;;;;;;7.03;3.85;;;;;;;10.13;100.00;99363.25;5094383;28;20375;-73
2022/11/16 19:23:52;;;;;;;8.18;3.40;;;;;;;10.14;100.00;99362.19;5094141;28;20395;-72
2022/11/16 19:26:19;;;;;;;8.27;3.58;;;;;;;10.13;100.00;99347.88;5095977;28;20063;-72
2022/11/16 19:28:46;;;;;;;10.80;3.83;;;;;;;10.14;100.00;99343.25;5094531;28;20034;-72
2022/11/16 19:31:15;;;;;;;13.98;5.13;;;;;;;10.08;100.00;99340.53;5077964;28;20040;-71
2022/11/16 19:33:40;;;;;;;10.80;3.80;;;;;;;10.09;100.00;99335.94;5095711;28;20417;-71
2022/11/16 19:36:14;;;;;;;11.38;3.17;;;;;;;10.08;100.00;99332.41;5095765;28;20032;-73
2022/11/16 19:38:40;;;;;;;10.55;3.28;;;;;;;10.06;100.00;99320.22;5089210;28;20032;-73
2022/11/16 19:41:06;;;;;;;6.60;3.20;;;;;;;10.03;100.00;99310.75;5094344;28;20069;-73
2022/11/16 19:43:33;;;;;;;7.93;3.58;;;;;;;10.01;100.00;99299.38;5094097;28;20027;-72
2022/11/16 19:46:12;;;;;;;8.30;3.33;;;;;;;10.00;100.00;99292.34;5094106;28;20154;-74
2022/11/16 19:48:38;;;;;;;8.85;3.30;;;;;;;10.01;100.00;99291.28;5093502;28;20031;-72
2022/11/16 19:51:11;;;;;;;6.53;3.53;;;;;;;10.06;100.00;99282.41;5081337;28;20383;-71
2022/11/16 19:53:38;;;;;;;10.05;4.18;;;;;;;10.00;100.00;99276.13;5079649;28;20165;-73
2022/11/16 19:56:04;;;;;;;7.72;3.17;;;;;;;9.99;100.00;99263.69;5095170;28;20031;-70
2022/11/16 19:58:30;;;;;;;5.65;3.10;;;;;;;9.99;100.00;99255.56;5091603;28;20024;-70
2022/11/16 20:01:04;;;;;;;10.43;3.60;;;;;;;9.96;100.00;99258.81;5091439;28;20035;-71
2022/11/16 20:03:30;;;;;;;9.25;4.38;;;;;;;9.94;100.00;99245.56;5093330;28;20024;-71
2022/11/16 20:06:25;;;;;;;6.10;3.05;;;;;;;9.97;100.00;99235.31;5093706;28;20489;-72
2022/11/16 20:08:52;;;;;;;5.13;2.80;;;;;;;9.88;100.00;99241.19;5086473;28;20033;-70
2022/11/16 20:11:20;;;;;;;6.93;2.75;;;;;;;9.87;100.00;99231.47;5074788;28;22024;-72
2022/11/16 20:13:46;;;;;;;7.20;3.30;;;;;;;9.84;100.00;99236.56;5074646;28;20025;-71
2022/11/16 20:16:12;;;;;;;5.47;2.88;;;;;;;9.81;100.00;99237.88;5073427;28;20395;-71
2022/11/16 20:18:40;;;;;;;5.65;2.95;;;;;;;9.81;100.00;99220.88;5080653;28;20028;-70
2022/11/16 20:21:06;;;;;;;4.72;2.80;;;;;;;9.83;100.00;99224.97;5095014;28;20032;-72
2022/11/16 20:23:33;;;;;;;6.88;3.25;;;;;;;9.79;100.00;99213.03;5092904;28;20051;-70
2022/11/16 20:26:05;;;;;;;5.65;2.83;;;;;;;9.81;100.00;99207.38;5092480;28;20036;-72
2022/11/16 20:28:38;;;;;;;8.50;3.33;;;;;;;9.82;100.00;99204.41;5093471;28;20096;-72
2022/11/16 20:31:10;;;;;;;7.95;3.22;;;;;;;9.80;100.00;99203.03;5092896;28;20048;-72
2022/11/16 20:33:35;;;;;;;7.78;3.20;;;;;;;9.78;100.00;99191.69;5094490;28;20032;-71
2022/11/16 20:36:06;;;;;;;6.00;3.20;;;;;;;9.80;100.00;99186.81;5071693;28;20456;-70
2022/11/16 20:38:32;;;;;;;12.07;3.15;;;;;;;9.78;100.00;99184.38;5073691;28;20392;-71
2022/11/16 20:41:09;;;;;;;8.40;3.08;;;;;;;9.80;100.00;99181.41;5073884;28;20077;-72
2022/11/16 20:43:35;;;;;;;5.85;2.65;;;;;;;9.83;100.00;99180.91;5073810;28;20024;-73
2022/11/16 20:46:00;;;;;;;7.85;2.80;;;;;;;9.85;100.00;99176.88;5075133;28;20495;-70
2022/11/16 20:48:25;;;;;;;6.10;2.55;;;;;;;9.86;100.00;99175.81;5094425;28;20475;-70
2022/11/16 20:50:52;;;;;;;6.13;2.75;;;;;;;9.84;100.00;99177.13;5092983;28;20032;-72
2022/11/16 20:53:18;;;;;;;10.07;3.03;;;;;;;9.87;100.00;99168.50;5093230;28;20040;-69
2022/11/16 20:55:44;;;;;;;7.65;3.00;;;;;;;9.89;100.00;99160.97;5093590;28;20463;-70
2022/11/16 20:58:10;;;;;;;7.88;3.10;;;;;;;9.87;100.00;99165.81;5073911;28;20034;-69
2022/11/16 21:00:35;;;;;;;6.72;3.40;;;;;;;9.89;100.00;99159.06;5070915;28;20098;-70
2022/11/16 21:03:00;;;;;;;7.18;2.90;;;;;;;9.88;100.00;99157.44;5055936;28;20066;-72
2022/11/16 21:05:26;;;;;;;5.32;3.05;;;;;;;9.88;100.00;99156.63;5055644;28;20484;-71
2022/11/16 21:07:51;;;;;;;11.15;3.30;;;;;;;9.88;100.00;99162.03;5072422;28;20032;-68
2022/11/16 21:10:20;;;;;;;7.85;3.58;;;;;;;9.85;100.00;99146.34;5072830;28;20035;-69
2022/11/16 21:15:29;;;;;;;9.13;3.33;;;;;;;9.89;100.00;99136.66;5072697;28;20536;-71
2022/11/16 21:17:54;;;;;;;9.82;3.40;;;;;;;9.91;100.00;99129.09;5085983;28;20032;-70
2022/11/16 21:20:20;;;;;;;8.00;3.35;;;;;;;9.89;100.00;99137.44;5093839;28;20020;-70
2022/11/16 21:22:45;;;;;;;7.13;3.20;;;;;;;9.87;100.00;99117.16;5089243;28;20040;-71
2022/11/16 21:25:11;;;;;;;6.93;3.53;;;;;;;9.86;100.00;99118.25;5080683;28;20112;-72
2022/11/16 21:27:36;;;;;;;6.68;3.35;;;;;;;9.85;100.00;99114.72;5073114;28;20482;-69
2022/11/16 21:30:02;;;;;;;6.47;3.40;;;;;;;9.87;100.00;99106.38;5073221;28;20056;-71
2022/11/16 21:32:27;;;;;;;6.57;3.65;;;;;;;9.87;100.00;99095.56;5073123;28;20470;-70
2022/11/16 21:34:53;;;;;;;8.40;3.60;;;;;;;9.84;100.00;99085.28;5072573;28;20093;-71
2022/11/16 21:37:18;;;;;;;6.55;3.13;;;;;;;9.83;100.00;99078.25;5093715;28;20030;-71
2022/11/16 21:39:43;;;;;;;6.97;3.35;;;;;;;9.84;100.00;99069.88;5089061;28;20532;-72
2022/11/16 21:42:09;;;;;;;5.57;3.20;;;;;;;9.83;100.00;99070.97;5072470;28;20111;-71
2022/11/16 21:44:40;;;;;;;8.45;3.88;;;;;;;9.82;100.00;99065.81;5087734;28;20055;-71
2022/11/16 21:47:09;;;;;;;6.70;3.47;;;;;;;9.79;100.00;99064.47;5093267;28;20032;-69
2022/11/16 21:49:35;;;;;;;8.50;3.35;;;;;;;9.80;100.00;99051.75;5074742;28;20034;-71
2022/11/16 21:52:01;;;;;;;9.95;3.33;;;;;;;9.76;100.00;99054.19;5091873;28;20032;-71
2022/11/16 21:57:10;;;;;;;10.35;3.63;;;;;;;9.71;100.00;99032.56;5085537;28;20078;-70
2022/11/16 21:59:35;;;;;;;8.15;3.35;;;;;;;9.71;100.00;99022.56;5072508;28;20029;-70
2022/11/16 22:02:01;;;;;;;8.75;3.60;;;;;;;9.71;100.00;99016.34;5077148;28;20040;-70
2022/11/16 22:07:32;;;;;;;7.20;3.42;;;;;;;9.66;100.00;98998.25;5092960;28;20105;-71
2022/11/16 22:10:08;;;;;;;6.90;3.58;;;;;;;9.69;100.00;98991.47;5090269;28;20035;-71
2022/11/16 22:12:34;;;;;;;8.80;3.72;;;;;;;9.65;100.00;98974.22;5083235;28;20467;-70
2022/11/16 22:15:00;;;;;;;9.85;3.95;;;;;;;9.65;100.00;98958.00;5092581;28;20104;-71
2022/11/16 22:17:26;;;;;;;9.15;3.80;;;;;;;9.62;100.00;98959.34;5074897;28;20052;-71
2022/11/16 22:19:51;;;;;;;7.70;3.90;;;;;;;9.60;100.00;98947.97;5092341;28;20053;-71
2022/11/16 22:22:17;;;;;;;9.98;4.53;;;;;;;9.56;100.00;98928.00;5091305;28;20028;-72
2022/11/16 22:24:42;;;;;;;9.30;4.10;;;;;;;9.53;100.00;98925.81;5072947;28;20036;-71
2022/11/16 22:27:07;;;;;;;8.63;4.10;;;;;;;9.52;100.00;98911.50;5092802;28;20028;-71
2022/11/16 22:29:32;;;;;;;7.63;4.57;;;;;;;9.49;100.00;98895.03;5092134;28;20036;-71